Time,TemperatureF,DewpointF,PressureIn,WindDirection,WindDirectionDegrees,WindSpeedMPH,WindSpeedGustMPH,Humidity,HourlyPrecipIn,Conditions,Clouds,dailyrainin,SoftwareType,DateUTC
2013-11-26 00:00:00,30.8,27.9,30.30,ENE,75,11.5,11.5,89,0.00,,,0.00,WeatherDisplay:10.37,2013-11-26 05:00:00,
2013-11-26 00:01:00,30.8,27.9,30.29,ENE,73,8.1,8.1,89,0.00,,,0.00,WeatherDisplay:10.37,2013-11-26 05:01:00,
2013-11-26 00:02:00,30.7,27.8,30.30,East,85,9.2,9.2,89,0.00,,,0.00,WeatherDisplay:10.37,2013-11-26 05:02:00,
2013-11-26 00:07:00,30.7,27.8,30.30,NNE,30,6.9,6.9,89,0.00,,,0.00,WeatherDisplay:10.37,2013-11-26 05:07:00,
2013-11-26 00:12:00,30.7,27.8,30.30,East,101,9.2,9.2,89,0.00,,,0.00,WeatherDisplay:10.37,2013-11-26 05:12:00,
2013-11-26 00:17:00,30.7,28.1,30.29,East,91,8.1,8.1,90,0.00,,,0.00,WeatherDisplay:10.37,2013-11-26 05:17:00,
2013-11-26 00:22:00,30.7,28.1,30.29,East,82,5.8,5.8,90,0.00,,,0.00,WeatherDisplay:10.37,2013-11-26 05:22:00,
2013-11-26 00:27:00,30.7,28.1,30.28,East,84,5.8,5.8,90,0.00,,,0.00,WeatherDisplay:10.37,2013-11-26 05:27:00,
2013-11-26 00:32:00,30.8,28.2,30.28,East,79,7.0,7.0,90,0.00,,,0.00,WeatherDisplay:10.37,2013-11-26 05:32:00,
2013-11-26 00:37:00,30.8,28.2,30.28,East,85,8.0,8.0,90,0.00,,,0.00,WeatherDisplay:10.37,2013-11-26 05:37:00,
2013-11-26 00:42:00,30.8,28.2,30.28,East,79,5.8,5.8,90,0.00,,,0.00,WeatherDisplay:10.37,2013-11-26 05:42:00,
2013-11-26 00:47:00,30.9,28.3,30.28,ESE,108,3.5,3.5,90,0.00,,,0.00,WeatherDisplay:10.37,2013-11-26 05:47:00,
2013-11-26 00:52:00,30.9,28.3,30.28,ESE,102,3.5,3.5,90,0.00,,,0.00,WeatherDisplay:10.37,2013-11-26 05:52:00,
2013-11-26 00:57:00,30.9,28.3,30.28,East,81,5.8,5.8,90,0.00,,,0.00,WeatherDisplay:10.37,2013-11-26 05:57:00,
2013-11-26 01:02:00,30.9,28.3,30.28,ENE,70,8.1,8.1,90,0.00,,,0.00,WeatherDisplay:10.37,2013-11-26 06:02:00,
2013-11-26 01:07:00,30.9,28.3,30.27,East,84,6.9,6.9,90,0.00,,,0.00,WeatherDisplay:10.37,2013-11-26 06:07:00,
2013-11-26 01:12:00,30.9,28.3,30.27,ENE,78,6.0,6.0,90,0.00,,,0.00,WeatherDisplay:10.37,2013-11-26 06:12:00,
2013-11-26 01:17:00,30.9,28.3,30.26,East,84,9.2,9.2,90,0.00,,,0.00,WeatherDisplay:10.37,2013-11-26 06:17:00,
2013-11-26 01:22:00,30.9,28.3,30.27,East,81,6.9,6.9,90,0.00,,,0.00,WeatherDisplay:10.37,2013-11-26 06:22:00,
2013-11-26 01:27:00,30.9,28.3,30.27,ESE,123,3.5,3.5,90,0.00,,,0.00,WeatherDisplay:10.37,2013-11-26 06:27:00,
2013-11-26 01:32:00,31.0,28.4,30.27,SE,133,3.5,3.5,90,0.00,,,0.00,WeatherDisplay:10.37,2013-11-26 06:32:00,
2013-11-26 01:37:00,31.0,28.7,30.27,East,85,4.6,4.6,91,0.00,,,0.00,WeatherDisplay:10.37,2013-11-26 06:37:00,
2013-11-26 01:42:00,31.2,28.9,30.27,ENE,74,4.0,4.0,91,0.00,,,0.00,WeatherDisplay:10.37,2013-11-26 06:42:00,
2013-11-26 01:47:00,31.3,29.0,30.27,ESE,113,3.5,3.5,91,0.00,,,0.00,WeatherDisplay:10.37,2013-11-26 06:47:00,
2013-11-26 01:52:00,31.3,29.0,30.27,ESE,112,3.5,3.5,91,0.00,,,0.00,WeatherDisplay:10.37,2013-11-26 06:52:00,
2013-11-26 01:57:00,31.5,29.2,30.26,ESE,111,5.8,5.8,91,0.00,,,0.00,WeatherDisplay:10.37,2013-11-26 06:57:00,
2013-11-26 02:02:00,31.5,29.2,30.26,East,90,3.5,3.5,91,0.00,,,0.00,WeatherDisplay:10.37,2013-11-26 07:02:00,
2013-11-26 02:07:00,31.5,29.2,30.26,East,87,3.5,3.5,91,0.00,,,0.00,WeatherDisplay:10.37,2013-11-26 07:07:00,
2013-11-26 02:12:00,31.6,29.5,30.27,ENE,76,3.5,3.5,92,0.00,,,0.00,WeatherDisplay:10.37,2013-11-26 07:12:00,
2013-11-26 02:17:00,31.7,29.6,30.27,ESE,102,4.6,4.6,92,0.00,,,0.00,WeatherDisplay:10.37,2013-11-26 07:17:00,
2013-11-26 02:22:00,31.8,29.7,30.27,ENE,77,5.0,5.0,92,0.00,,,0.00,WeatherDisplay:10.37,2013-11-26 07:22:00,
2013-11-26 02:27:00,31.9,29.8,30.27,East,85,5.8,5.8,92,0.00,,,0.00,WeatherDisplay:10.37,2013-11-26 07:27:00,
2013-11-26 02:32:00,32.0,29.7,30.27,ESE,111,8.1,8.1,91,0.00,,,0.00,WeatherDisplay:10.37,2013-11-26 07:32:00,
2013-11-26 02:37:00,32.1,29.8,30.27,East,80,6.9,6.9,91,0.00,,,0.00,WeatherDisplay:10.37,2013-11-26 07:37:00,
2013-11-26 02:42:00,32.1,30.0,30.26,East,80,6.0,6.0,92,0.00,,,0.00,WeatherDisplay:10.37,2013-11-26 07:42:00,
2013-11-26 02:47:00,32.1,30.0,30.26,ESE,115,6.0,6.0,92,0.00,,,0.00,WeatherDisplay:10.37,2013-11-26 07:47:00,
2013-11-26 02:52:00,32.1,30.0,30.26,ENE,64,5.8,5.8,92,0.00,,,0.00,WeatherDisplay:10.37,2013-11-26 07:52:00,
2013-11-26 02:57:00,32.2,30.1,30.26,ESE,112,4.6,4.6,92,0.00,,,0.00,WeatherDisplay:10.37,2013-11-26 07:57:00,
2013-11-26 03:02:00,32.2,30.1,30.26,East,85,6.0,6.0,92,0.00,,,0.00,WeatherDisplay:10.37,2013-11-26 08:02:00,
2013-11-26 03:07:00,32.3,30.2,30.25,ESE,108,3.5,3.5,92,0.00,,,0.00,WeatherDisplay:10.37,2013-11-26 08:07:00,
2013-11-26 03:12:00,32.3,30.2,30.25,SE,137,3.5,3.5,92,0.00,,,0.00,WeatherDisplay:10.37,2013-11-26 08:12:00,
2013-11-26 03:17:00,32.2,30.1,30.25,ENE,71,4.6,4.6,92,0.00,,,0.00,WeatherDisplay:10.37,2013-11-26 08:17:00,
2013-11-26 03:22:00,32.2,30.4,30.24,ENE,67,6.0,6.0,93,0.00,,,0.00,WeatherDisplay:10.37,2013-11-26 08:22:00,
2013-11-26 03:27:00,32.2,30.4,30.25,NNE,30,3.5,3.5,93,0.00,,,0.00,WeatherDisplay:10.37,2013-11-26 08:27:00,
2013-11-26 03:32:00,32.3,30.5,30.24,ENE,70,4.6,4.6,93,0.00,,,0.00,WeatherDisplay:10.37,2013-11-26 08:32:00,
2013-11-26 03:37:00,32.2,30.4,30.24,ENE,64,4.0,4.0,93,0.00,,,0.00,WeatherDisplay:10.37,2013-11-26 08:37:00,
2013-11-26 03:42:00,32.2,30.4,30.24,East,96,4.6,4.6,93,0.00,,,0.00,WeatherDisplay:10.37,2013-11-26 08:42:00,
2013-11-26 03:47:00,32.3,30.5,30.24,ESE,116,5.0,5.0,93,0.00,,,0.00,WeatherDisplay:10.37,2013-11-26 08:47:00,
2013-11-26 03:52:00,32.3,30.5,30.24,East,101,5.0,5.0,93,0.00,,,0.00,WeatherDisplay:10.37,2013-11-26 08:52:00,
2013-11-26 03:57:00,32.4,30.6,30.24,ENE,73,5.0,5.0,93,0.00,,,0.00,WeatherDisplay:10.37,2013-11-26 08:57:00,
2013-11-26 04:02:00,32.4,30.6,30.24,East,80,6.9,6.9,93,0.00,,,0.00,WeatherDisplay:10.37,2013-11-26 09:02:00,
2013-11-26 04:07:00,32.5,30.7,30.24,ESE,102,3.5,3.5,93,0.00,,,0.00,WeatherDisplay:10.37,2013-11-26 09:07:00,
2013-11-26 04:12:00,32.5,31.0,30.24,ESE,106,2.3,2.3,94,0.00,,,0.00,WeatherDisplay:10.37,2013-11-26 09:12:00,
2013-11-26 04:17:00,32.5,31.0,30.24,ENE,78,3.5,3.5,94,0.00,,,0.00,WeatherDisplay:10.37,2013-11-26 09:17:00,
2013-11-26 04:22:00,32.6,31.1,30.24,East,87,3.5,3.5,94,0.00,,,0.00,WeatherDisplay:10.37,2013-11-26 09:22:00,
2013-11-26 04:27:00,32.6,31.1,30.23,East,95,2.3,2.3,94,0.00,,,0.00,WeatherDisplay:10.37,2013-11-26 09:27:00,
2013-11-26 04:33:00,32.6,31.1,30.23,East,89,3.5,3.5,94,0.00,,,0.00,WeatherDisplay:10.37,2013-11-26 09:33:00,
2013-11-26 04:38:00,32.6,31.1,30.23,East,84,2.3,2.3,94,0.00,,,0.00,WeatherDisplay:10.37,2013-11-26 09:38:00,
2013-11-26 04:43:00,32.6,31.1,30.23,SE,141,1.2,1.2,94,0.00,,,0.00,WeatherDisplay:10.37,2013-11-26 09:43:00,
2013-11-26 04:48:00,32.7,31.2,30.23,East,84,0.0,0.0,94,0.00,,,0.00,WeatherDisplay:10.37,2013-11-26 09:48:00,
2013-11-26 04:53:00,32.7,31.2,30.23,SE,132,0.0,0.0,94,0.00,,,0.00,WeatherDisplay:10.37,2013-11-26 09:53:00,
2013-11-26 04:58:00,32.7,31.4,30.23,SE,136,1.2,1.2,95,0.00,,,0.00,WeatherDisplay:10.37,2013-11-26 09:58:00,
2013-11-26 05:03:00,32.7,31.4,30.22,East,98,1.2,1.2,95,0.00,,,0.00,WeatherDisplay:10.37,2013-11-26 10:03:00,
2013-11-26 05:08:00,32.8,31.5,30.22,East,82,1.2,1.2,95,0.00,,,0.00,WeatherDisplay:10.37,2013-11-26 10:08:00,
2013-11-26 05:13:00,32.8,31.5,30.21,ENE,73,2.3,2.3,95,0.00,,,0.00,WeatherDisplay:10.37,2013-11-26 10:13:00,
2013-11-26 05:18:00,32.9,31.6,30.21,East,88,2.3,2.3,95,0.00,,,0.00,WeatherDisplay:10.37,2013-11-26 10:18:00,
2013-11-26 05:23:00,32.9,31.6,30.21,East,85,2.3,2.3,95,0.00,,,0.00,WeatherDisplay:10.37,2013-11-26 10:23:00,
2013-11-26 05:28:00,32.9,31.6,30.21,East,99,2.3,2.3,95,0.00,,,0.00,WeatherDisplay:10.37,2013-11-26 10:28:00,
2013-11-26 05:33:00,32.9,31.6,30.20,ESE,104,3.5,3.5,95,0.00,,,0.00,WeatherDisplay:10.37,2013-11-26 10:33:00,
2013-11-26 05:38:00,33.0,31.7,30.20,East,82,1.2,1.2,95,0.00,,,0.00,WeatherDisplay:10.37,2013-11-26 10:38:00,
2013-11-26 05:43:00,33.0,31.7,30.20,ENE,67,2.3,2.3,95,0.00,,,0.00,WeatherDisplay:10.37,2013-11-26 10:43:00,
2013-11-26 05:48:00,33.0,31.7,30.20,ENE,77,1.2,1.2,95,0.00,,,0.00,WeatherDisplay:10.37,2013-11-26 10:48:00,
2013-11-26 05:53:00,33.0,31.7,30.20,East,87,2.3,2.3,95,0.00,,,0.00,WeatherDisplay:10.37,2013-11-26 10:53:00,
2013-11-26 05:58:00,33.1,31.8,30.19,ENE,77,2.3,2.3,95,0.00,,,0.00,WeatherDisplay:10.37,2013-11-26 10:58:00,
2013-11-26 06:03:00,33.1,31.8,30.19,ESE,105,1.2,1.2,95,0.00,,,0.00,WeatherDisplay:10.37,2013-11-26 11:03:00,
2013-11-26 06:08:00,33.2,32.2,30.19,SE,129,1.2,1.2,96,0.00,,,0.00,WeatherDisplay:10.37,2013-11-26 11:08:00,
2013-11-26 06:13:00,33.3,32.3,30.18,East,86,2.3,2.3,96,0.00,,,0.00,WeatherDisplay:10.37,2013-11-26 11:13:00,
2013-11-26 06:18:00,33.3,32.3,30.18,NE,40,2.3,2.3,96,0.00,,,0.00,WeatherDisplay:10.37,2013-11-26 11:18:00,
2013-11-26 06:23:00,33.3,32.3,30.18,ENE,70,4.0,4.0,96,0.00,,,0.00,WeatherDisplay:10.37,2013-11-26 11:23:00,
2013-11-26 06:28:00,33.4,32.4,30.18,ESE,122,1.2,0.0,96,0.00,,,0.00,WeatherDisplay:10.37,2013-11-26 11:28:00,
2013-11-26 06:33:00,33.5,32.5,30.18,NNE,29,0.0,0.0,96,0.00,,,0.00,WeatherDisplay:10.37,2013-11-26 11:33:00,
2013-11-26 06:38:00,33.5,32.5,30.18,East,84,2.3,2.3,96,0.00,,,0.00,WeatherDisplay:10.37,2013-11-26 11:38:00,
2013-11-26 06:43:00,33.6,32.6,30.18,North,1,0.0,0.0,96,0.00,,,0.00,WeatherDisplay:10.37,2013-11-26 11:43:00,
2013-11-26 06:48:00,33.7,32.7,30.18,SSE,155,2.3,2.3,96,0.00,,,0.00,WeatherDisplay:10.37,2013-11-26 11:48:00,
2013-11-26 06:53:00,33.7,32.7,30.18,SE,141,1.2,1.2,96,0.00,,,0.00,WeatherDisplay:10.37,2013-11-26 11:53:00,
2013-11-26 06:58:00,33.8,32.8,30.18,SSE,153,0.0,0.0,96,0.00,,,0.00,WeatherDisplay:10.37,2013-11-26 11:58:00,
2013-11-26 07:03:00,33.9,32.9,30.18,ESE,108,1.2,1.2,96,0.00,CLR,,0.00,WeatherDisplay:10.37,2013-11-26 12:03:00,
2013-11-26 07:08:00,34.0,33.0,30.17,East,82,3.5,3.5,96,0.00,CLR,,0.00,WeatherDisplay:10.37,2013-11-26 12:08:00,
2013-11-26 07:13:00,34.0,33.0,30.17,NNE,33,1.2,1.2,96,0.00,CLR,,0.00,WeatherDisplay:10.37,2013-11-26 12:13:00,
2013-11-26 07:18:00,34.1,33.1,30.18,NNE,32,1.2,1.2,96,0.00,CLR,,0.00,WeatherDisplay:10.37,2013-11-26 12:18:00,
2013-11-26 07:23:00,34.2,33.2,30.17,East,94,2.3,2.3,96,0.00,CLR,,0.00,WeatherDisplay:10.37,2013-11-26 12:23:00,
2013-11-26 07:28:00,34.3,33.3,30.17,SE,137,1.0,1.0,96,0.00,CLR,,0.00,WeatherDisplay:10.37,2013-11-26 12:28:00,
2013-11-26 07:33:00,34.5,33.5,30.17,SE,133,0.0,0.0,96,0.00,CLR,,0.00,WeatherDisplay:10.37,2013-11-26 12:33:00,
2013-11-26 07:38:00,34.7,33.7,30.17,ESE,119,1.2,1.2,96,0.00,CLR,,0.00,WeatherDisplay:10.37,2013-11-26 12:38:00,
2013-11-26 07:43:00,34.8,33.8,30.17,East,94,1.2,1.2,96,0.00,CLR,,0.00,WeatherDisplay:10.37,2013-11-26 12:43:00,
2013-11-26 07:48:00,34.8,33.8,30.16,East,82,2.3,2.3,96,0.00,CLR,,0.00,WeatherDisplay:10.37,2013-11-26 12:48:00,
2013-11-26 07:53:00,34.8,33.8,30.17,East,79,2.3,2.3,96,0.00,CLR,,0.00,WeatherDisplay:10.37,2013-11-26 12:53:00,
2013-11-26 07:58:00,34.9,33.9,30.16,East,80,1.2,1.2,96,0.00,CLR,,0.00,WeatherDisplay:10.37,2013-11-26 12:58:00,
2013-11-26 08:03:00,34.9,33.9,30.17,ENE,78,0.0,0.0,96,0.00,CLR,,0.00,WeatherDisplay:10.37,2013-11-26 13:03:00,
2013-11-26 08:08:00,34.9,33.9,30.17,ENE,78,1.2,0.0,96,0.00,CLR,,0.01,WeatherDisplay:10.37,2013-11-26 13:08:00,
2013-11-26 08:13:00,35.0,34.0,30.17,ENE,78,0.0,0.0,96,0.01,RA,,0.01,WeatherDisplay:10.37,2013-11-26 13:13:00,
2013-11-26 08:18:00,35.2,34.2,30.16,SE,136,1.2,1.2,96,0.02,RA,,0.02,WeatherDisplay:10.37,2013-11-26 13:18:00,
2013-11-26 08:23:00,35.3,34.5,30.17,SE,136,0.0,0.0,97,0.03,RA,,0.03,WeatherDisplay:10.37,2013-11-26 13:23:00,
2013-11-26 08:28:00,35.4,34.6,30.17,SE,136,0.0,0.0,97,0.04,RA,,0.04,WeatherDisplay:10.37,2013-11-26 13:28:00,
2013-11-26 08:33:00,35.5,34.7,30.17,SE,136,0.0,0.0,97,0.05,RA,,0.05,WeatherDisplay:10.37,2013-11-26 13:33:00,
2013-11-26 08:38:00,35.7,34.9,30.16,SE,136,0.0,0.0,97,0.06,RA,,0.06,WeatherDisplay:10.37,2013-11-26 13:38:00,
2013-11-26 08:43:00,36.0,35.2,30.16,SSE,147,1.2,1.2,97,0.07,RA,,0.07,WeatherDisplay:10.37,2013-11-26 13:43:00,
2013-11-26 08:48:00,36.2,35.4,30.15,East,84,2.0,2.0,97,0.08,RA,,0.08,WeatherDisplay:10.37,2013-11-26 13:48:00,
2013-11-26 08:53:00,36.3,35.5,30.14,East,80,2.3,2.3,97,0.08,RA,,0.09,WeatherDisplay:10.37,2013-11-26 13:53:00,
2013-11-26 08:58:00,36.4,35.6,30.14,ENE,78,1.2,1.2,97,0.09,RA,,0.09,WeatherDisplay:10.37,2013-11-26 13:58:00,
2013-11-26 09:03:00,36.4,35.6,30.13,ENE,78,0.0,0.0,97,0.10,RA,,0.11,WeatherDisplay:10.37,2013-11-26 14:03:00,
2013-11-26 09:08:00,36.7,35.9,30.13,NNE,25,0.0,0.0,97,0.12,RA,,0.12,WeatherDisplay:10.37,2013-11-26 14:08:00,
2013-11-26 09:13:00,37.0,36.2,30.12,ENE,70,1.2,0.0,97,0.13,RA,,0.14,WeatherDisplay:10.37,2013-11-26 14:13:00,
2013-11-26 09:18:00,37.2,36.4,30.12,SE,133,2.3,2.3,97,0.13,RA,,0.16,WeatherDisplay:10.37,2013-11-26 14:18:00,
2013-11-26 09:24:00,37.7,36.9,30.11,ESE,103,4.0,4.0,97,0.15,RA,,0.19,WeatherDisplay:10.37,2013-11-26 14:24:00,
2013-11-26 09:29:00,38.2,37.7,30.11,ESE,116,3.5,3.7,98,0.17,RA,,0.21,WeatherDisplay:10.37,2013-11-26 14:29:00,
2013-11-26 09:34:00,38.5,38.0,30.11,East,82,4.6,4.6,98,0.17,RA,,0.23,WeatherDisplay:10.37,2013-11-26 14:34:00,
2013-11-26 09:39:00,38.7,37.9,30.10,East,81,5.0,5.0,97,0.18,RA,,0.24,WeatherDisplay:10.37,2013-11-26 14:39:00,
2013-11-26 09:44:00,39.0,38.2,30.10,East,82,6.9,6.9,97,0.18,RA,,0.25,WeatherDisplay:10.37,2013-11-26 14:44:00,
2013-11-26 09:49:00,39.3,38.8,30.09,East,82,8.1,8.1,98,0.18,RA,,0.26,WeatherDisplay:10.37,2013-11-26 14:49:00,
2013-11-26 09:54:00,39.7,39.2,30.10,East,82,5.8,5.8,98,0.19,RA,,0.28,WeatherDisplay:10.37,2013-11-26 14:54:00,
2013-11-26 09:59:00,40.1,39.6,30.10,SE,135,6.9,6.9,98,0.19,RA,,0.28,WeatherDisplay:10.37,2013-11-26 14:59:00,
2013-11-26 10:04:00,40.3,39.8,30.09,East,94,8.1,8.1,98,0.18,RA,,0.28,WeatherDisplay:10.37,2013-11-26 15:04:00,
2013-11-26 10:09:00,40.6,40.1,30.09,ENE,68,6.9,6.9,98,0.17,RA,,0.29,WeatherDisplay:10.37,2013-11-26 15:09:00,
2013-11-26 10:14:00,40.9,40.4,30.09,East,80,4.6,4.6,98,0.16,RA,,0.30,WeatherDisplay:10.37,2013-11-26 15:14:00,
2013-11-26 10:19:00,41.1,40.3,30.08,ENE,78,6.9,6.9,97,0.15,RA,,0.31,WeatherDisplay:10.37,2013-11-26 15:19:00,
2013-11-26 10:24:00,41.3,40.5,30.08,East,80,6.9,6.9,97,0.13,RA,,0.32,WeatherDisplay:10.37,2013-11-26 15:24:00,
2013-11-26 10:29:00,41.5,40.7,30.08,East,88,8.1,8.1,97,0.12,RA,,0.33,WeatherDisplay:10.37,2013-11-26 15:29:00,
2013-11-26 10:34:00,41.7,40.9,30.07,ENE,78,5.8,5.8,97,0.11,RA,,0.34,WeatherDisplay:10.37,2013-11-26 15:34:00,
2013-11-26 10:39:00,41.8,41.0,30.07,ENE,74,5.0,5.0,97,0.11,RA,,0.35,WeatherDisplay:10.37,2013-11-26 15:39:00,
2013-11-26 10:44:00,41.9,41.1,30.06,East,82,6.0,6.0,97,0.11,RA,,0.36,WeatherDisplay:10.37,2013-11-26 15:44:00,
2013-11-26 10:49:00,42.0,41.2,30.06,ENE,73,11.5,11.5,97,0.10,RA,,0.37,WeatherDisplay:10.37,2013-11-26 15:49:00,
2013-11-26 10:54:00,41.9,41.1,30.05,ESE,113,9.2,9.2,97,0.10,RA,,0.38,WeatherDisplay:10.37,2013-11-26 15:54:00,
2013-11-26 10:59:00,41.9,41.1,30.05,East,98,10.4,10.4,97,0.11,RA,,0.39,WeatherDisplay:10.37,2013-11-26 15:59:00,
2013-11-26 11:04:00,42.0,41.2,30.04,East,86,8.1,8.1,97,0.12,RA,,0.40,WeatherDisplay:10.37,2013-11-26 16:04:00,
2013-11-26 11:09:00,42.2,41.4,30.04,East,89,11.5,11.5,97,0.13,RA,,0.42,WeatherDisplay:10.37,2013-11-26 16:09:00,
2013-11-26 11:14:00,42.3,41.5,30.04,ENE,58,8.1,8.1,97,0.13,RA,,0.43,WeatherDisplay:10.37,2013-11-26 16:14:00,
2013-11-26 11:19:00,42.5,41.7,30.04,ENE,61,9.2,9.2,97,0.13,RA,,0.45,WeatherDisplay:10.37,2013-11-26 16:19:00,
2013-11-26 11:24:00,42.7,41.9,30.03,ENE,74,10.4,10.4,97,0.14,RA,,0.46,WeatherDisplay:10.37,2013-11-26 16:24:00,
2013-11-26 11:29:00,42.8,42.0,30.02,ENE,75,8.1,8.1,97,0.14,RA,,0.47,WeatherDisplay:10.37,2013-11-26 16:29:00,
2013-11-26 11:34:00,42.9,42.1,30.02,East,81,8.1,8.1,97,0.14,RA,,0.48,WeatherDisplay:10.37,2013-11-26 16:34:00,
2013-11-26 11:39:00,43.0,42.2,30.01,ENE,75,6.0,6.0,97,0.14,RA,,0.49,WeatherDisplay:10.37,2013-11-26 16:39:00,
2013-11-26 11:44:00,43.0,42.2,30.01,ENE,71,3.5,3.5,97,0.14,RA,,0.51,WeatherDisplay:10.37,2013-11-26 16:44:00,
2013-11-26 11:49:00,43.1,42.3,29.99,East,81,5.0,5.0,97,0.16,RA,,0.52,WeatherDisplay:10.37,2013-11-26 16:49:00,
2013-11-26 11:54:00,43.2,42.4,29.99,East,94,5.8,5.8,97,0.15,RA,,0.53,WeatherDisplay:10.37,2013-11-26 16:54:00,
2013-11-26 11:59:00,43.3,42.5,29.99,ENE,72,5.8,5.8,97,0.15,RA,,0.54,WeatherDisplay:10.37,2013-11-26 16:59:00,
2013-11-26 12:04:00,43.4,42.6,29.98,ENE,71,8.1,8.1,97,0.15,RA,,0.55,WeatherDisplay:10.37,2013-11-26 17:04:00,
2013-11-26 12:09:00,43.4,42.3,29.98,East,88,5.8,5.8,96,0.14,RA,,0.56,WeatherDisplay:10.37,2013-11-26 17:09:00,
2013-11-26 12:14:00,43.5,42.4,29.98,East,80,3.5,3.5,96,0.14,RA,,0.57,WeatherDisplay:10.37,2013-11-26 17:14:00,
2013-11-26 12:19:00,43.5,42.4,29.98,NNE,16,1.2,1.2,96,0.15,RA,,0.59,WeatherDisplay:10.37,2013-11-26 17:19:00,
2013-11-26 12:24:00,43.5,42.4,29.98,ENE,75,1.2,1.2,96,0.14,RA,,0.60,WeatherDisplay:10.37,2013-11-26 17:24:00,
2013-11-26 12:29:00,43.5,42.4,29.97,NNE,20,1.2,1.2,96,0.15,RA,,0.62,WeatherDisplay:10.37,2013-11-26 17:29:00,
2013-11-26 12:34:00,43.5,42.4,29.97,East,83,3.0,3.0,96,0.15,RA,,0.63,WeatherDisplay:10.37,2013-11-26 17:34:00,
2013-11-26 12:39:00,43.5,42.4,29.97,East,95,2.3,2.3,96,0.16,RA,,0.66,WeatherDisplay:10.37,2013-11-26 17:39:00,
2013-11-26 12:44:00,43.6,42.5,29.96,East,89,5.8,5.8,96,0.17,RA,,0.68,WeatherDisplay:10.37,2013-11-26 17:44:00,
2013-11-26 12:49:00,43.6,42.5,29.95,SE,132,3.5,3.5,96,0.17,RA,,0.69,WeatherDisplay:10.37,2013-11-26 17:49:00,
2013-11-26 12:54:00,43.7,42.9,29.94,East,91,4.0,4.0,97,0.17,RA,,0.71,WeatherDisplay:10.37,2013-11-26 17:54:00,
2013-11-26 12:59:00,43.7,42.9,29.94,East,87,4.6,4.6,97,0.18,RA,,0.72,WeatherDisplay:10.37,2013-11-26 17:59:00,
2013-11-26 13:04:00,43.8,43.0,29.93,East,84,3.5,3.5,97,0.19,RA,,0.74,WeatherDisplay:10.37,2013-11-26 18:04:00,
2013-11-26 13:09:00,43.8,42.7,29.92,ESE,115,3.5,3.5,96,0.19,RA,,0.75,WeatherDisplay:10.37,2013-11-26 18:09:00,
2013-11-26 13:14:00,43.7,42.6,29.92,ESE,118,4.6,4.6,96,0.20,RA,,0.77,WeatherDisplay:10.37,2013-11-26 18:14:00,
2013-11-26 13:19:00,43.6,42.5,29.93,ENE,70,2.3,2.3,96,0.19,RA,,0.78,WeatherDisplay:10.37,2013-11-26 18:19:00,
2013-11-26 13:24:00,43.6,42.8,29.94,ESE,106,0.0,0.0,97,0.20,RA,,0.80,WeatherDisplay:10.37,2013-11-26 18:24:00,
2013-11-26 13:29:00,43.6,42.8,29.93,ESE,106,0.0,0.0,97,0.21,RA,,0.84,WeatherDisplay:10.37,2013-11-26 18:29:00,
2013-11-26 13:34:00,43.7,42.9,29.94,ESE,106,0.0,0.0,97,0.23,RA,,0.87,WeatherDisplay:10.37,2013-11-26 18:34:00,
2013-11-26 13:39:00,43.7,42.9,29.93,ESE,106,0.0,0.0,97,0.23,RA,,0.89,WeatherDisplay:10.37,2013-11-26 18:39:00,
2013-11-26 13:44:00,43.8,43.0,29.92,ESE,106,0.0,0.0,97,0.24,RA,,0.91,WeatherDisplay:10.37,2013-11-26 18:44:00,
2013-11-26 13:49:00,43.9,43.1,29.93,ESE,106,0.0,0.0,97,0.24,RA,,0.93,WeatherDisplay:10.37,2013-11-26 18:49:00,
2013-11-26 13:54:00,43.9,43.1,29.92,ESE,106,1.2,1.2,97,0.25,RA,,0.95,WeatherDisplay:10.37,2013-11-26 18:54:00,
2013-11-26 13:59:00,43.8,43.0,29.92,ESE,108,1.2,1.2,97,0.25,RA,,0.97,WeatherDisplay:10.37,2013-11-26 18:59:00,
2013-11-26 14:04:00,43.8,43.0,29.92,ESE,118,3.5,3.5,97,0.25,RA,,0.99,WeatherDisplay:10.37,2013-11-26 19:04:00,
2013-11-26 14:09:00,43.8,43.0,29.92,ESE,120,0.0,0.0,97,0.25,RA,,1.01,WeatherDisplay:10.37,2013-11-26 19:09:00,
2013-11-26 14:15:00,43.8,43.0,29.91,East,99,2.3,2.3,97,0.26,RA,,1.03,WeatherDisplay:10.37,2013-11-26 19:15:00,
2013-11-26 14:20:00,43.8,43.0,29.91,East,85,2.3,2.3,97,0.27,RA,,1.05,WeatherDisplay:10.37,2013-11-26 19:20:00,
2013-11-26 14:25:00,43.8,43.0,29.90,SE,129,2.3,2.3,97,0.26,RA,,1.06,WeatherDisplay:10.37,2013-11-26 19:25:00,
2013-11-26 14:30:00,43.7,43.0,29.89,East,85,2.0,4.0,97,0.00,RA,,1.07,WeatherDisplay:10.37,2013-11-26 19:30:00,
2013-11-26 14:40:00,43.7,42.9,29.91,SSE,158,0.0,0.0,97,0.23,RA,,1.11,WeatherDisplay:10.37,2013-11-26 19:40:00,
2013-11-26 14:45:00,43.6,42.8,29.90,ESE,122,0.0,2.0,97,0.00,RA,,1.13,WeatherDisplay:10.37,2013-11-26 19:45:00,
2013-11-26 14:50:00,43.6,42.8,29.91,East,101,1.0,2.0,97,0.01,RA,,1.15,WeatherDisplay:10.37,2013-11-26 19:50:00,
2013-11-26 14:55:00,43.6,42.8,29.89,ENE,78,3.5,3.5,97,0.21,RA,,1.16,WeatherDisplay:10.37,2013-11-26 19:55:00,
2013-11-26 15:00:00,43.7,42.9,29.89,East,81,1.0,3.0,97,0.01,RA,,1.18,WeatherDisplay:10.37,2013-11-26 20:00:00,
2013-11-26 15:05:00,43.7,42.9,29.88,East,85,6.0,6.0,97,0.20,RA,,1.19,WeatherDisplay:10.37,2013-11-26 20:05:00,
2013-11-26 15:10:00,43.7,42.9,29.87,East,82,6.9,6.9,97,0.20,RA,,1.20,WeatherDisplay:10.37,2013-11-26 20:10:00,
2013-11-26 15:15:00,43.7,42.9,29.88,East,86,5.0,7.0,97,0.00,RA,,1.21,WeatherDisplay:10.37,2013-11-26 20:15:00,
2013-11-26 15:20:00,43.7,42.9,29.89,North,6,3.5,3.5,97,0.17,RA,,1.23,WeatherDisplay:10.37,2013-11-26 20:20:00,
2013-11-26 15:25:00,43.7,42.9,29.89,NE,49,0.0,1.0,97,0.00,RA,,1.25,WeatherDisplay:10.37,2013-11-26 20:25:00,
2013-11-26 15:30:00,43.7,42.9,29.88,NNE,30,1.0,2.0,97,0.01,RA,,1.27,WeatherDisplay:10.37,2013-11-26 20:30:00,
2013-11-26 15:35:00,43.7,42.9,29.87,ENE,73,4.0,4.0,97,0.19,RA,,1.28,WeatherDisplay:10.37,2013-11-26 20:35:00,
2013-11-26 15:40:00,43.7,42.9,29.87,ENE,61,4.6,4.6,97,0.18,RA,,1.30,WeatherDisplay:10.37,2013-11-26 20:40:00,
2013-11-26 15:45:00,43.7,42.9,29.86,East,83,3.0,5.0,97,0.01,RA,,1.32,WeatherDisplay:10.37,2013-11-26 20:45:00,
2013-11-26 15:50:00,43.7,42.9,29.85,East,82,3.5,3.5,97,0.19,RA,,1.33,WeatherDisplay:10.37,2013-11-26 20:50:00,
2013-11-26 15:55:00,43.7,42.9,29.85,East,86,2.0,4.0,97,0.01,RA,,1.35,WeatherDisplay:10.37,2013-11-26 20:55:00,
2013-11-26 16:00:00,43.7,42.9,29.85,ESE,112,4.6,4.6,97,0.19,RA,,1.36,WeatherDisplay:10.37,2013-11-26 21:00:00,
2013-11-26 16:05:00,43.7,42.9,29.86,ENE,68,3.0,3.0,97,0.19,RA,,1.39,WeatherDisplay:10.37,2013-11-26 21:05:00,
2013-11-26 16:10:00,43.6,42.8,29.85,East,81,3.0,5.0,97,0.00,RA,,1.41,WeatherDisplay:10.37,2013-11-26 21:10:00,
2013-11-26 16:15:00,43.6,42.8,29.85,ENE,78,6.0,6.0,97,0.22,RA,,1.43,WeatherDisplay:10.37,2013-11-26 21:15:00,
2013-11-26 16:20:00,43.5,42.7,29.85,ENE,73,5.0,5.0,97,0.23,RA,,1.45,WeatherDisplay:10.37,2013-11-26 21:20:00,
2013-11-26 16:25:00,43.5,42.7,29.84,East,91,5.0,10.0,97,0.00,RA,,1.48,WeatherDisplay:10.37,2013-11-26 21:25:00,
2013-11-26 16:30:00,43.3,42.5,29.82,East,80,8.1,8.1,97,0.24,RA,,1.51,WeatherDisplay:10.37,2013-11-26 21:30:00,
2013-11-26 16:35:00,43.1,42.3,29.82,East,85,7.0,12.0,97,0.00,RA,,1.53,WeatherDisplay:10.37,2013-11-26 21:35:00,
2013-11-26 16:40:00,42.8,42.0,29.81,East,83,7.0,12.0,97,0.00,RA,,1.55,WeatherDisplay:10.37,2013-11-26 21:40:00,
2013-11-26 16:45:00,42.7,41.9,29.81,ENE,71,6.9,6.9,97,0.26,RA,,1.57,WeatherDisplay:10.37,2013-11-26 21:45:00,
2013-11-26 16:50:00,42.7,41.9,29.81,ENE,74,5.0,5.0,97,0.26,RA,,1.59,WeatherDisplay:10.37,2013-11-26 21:50:00,
2013-11-26 16:55:00,42.7,41.9,29.79,East,85,6.0,8.0,97,0.00,RA,,1.61,WeatherDisplay:10.37,2013-11-26 21:55:00,
2013-11-26 17:00:00,42.6,41.8,29.78,East,91,9.0,9.0,97,0.27,RA,,1.63,WeatherDisplay:10.37,2013-11-26 22:00:00,
2013-11-26 17:05:00,42.6,41.8,29.77,East,101,11.5,11.5,97,0.27,RA,,1.65,WeatherDisplay:10.37,2013-11-26 22:05:00,
2013-11-26 17:10:00,42.5,41.7,29.79,East,85,6.9,6.9,97,0.25,RA,,1.66,WeatherDisplay:10.37,2013-11-26 22:10:00,
2013-11-26 17:15:00,42.6,41.8,29.80,East,87,3.5,3.5,97,0.25,RA,,1.68,WeatherDisplay:10.37,2013-11-26 22:15:00,
2013-11-26 17:20:00,42.6,41.8,29.79,East,85,2.0,4.0,97,0.00,RA,,1.70,WeatherDisplay:10.37,2013-11-26 22:20:00,
2013-11-26 17:25:00,42.6,41.8,29.78,East,80,6.9,6.9,97,0.23,RA,,1.71,WeatherDisplay:10.37,2013-11-26 22:25:00,
2013-11-26 17:30:00,42.7,41.9,29.78,ENE,72,5.0,7.0,97,0.00,RA,,1.72,WeatherDisplay:10.37,2013-11-26 22:30:00,
2013-11-26 17:35:00,42.7,41.9,29.79,ENE,75,3.0,8.0,97,0.00,RA,,1.73,WeatherDisplay:10.37,2013-11-26 22:35:00,
2013-11-26 17:40:00,42.7,41.9,29.80,NE,35,3.5,3.5,97,0.19,RA,,1.75,WeatherDisplay:10.37,2013-11-26 22:40:00,
2013-11-26 17:45:00,42.6,41.8,29.78,East,83,5.0,7.0,97,0.00,RA,,1.75,WeatherDisplay:10.37,2013-11-26 22:45:00,
2013-11-26 17:50:00,42.6,41.8,29.79,East,85,2.0,5.0,97,0.00,RA,,1.76,WeatherDisplay:10.37,2013-11-26 22:50:00,
2013-11-26 17:55:00,42.5,41.7,29.78,East,91,4.6,4.6,97,0.16,RA,,1.77,WeatherDisplay:10.37,2013-11-26 22:55:00,
2013-11-26 18:00:00,42.6,41.8,29.79,East,82,1.0,4.0,97,0.00,RA,,1.77,WeatherDisplay:10.37,2013-11-26 23:00:00,
2013-11-26 18:05:00,42.6,41.8,29.79,ENE,77,1.0,5.0,97,0.00,RA,,1.78,WeatherDisplay:10.37,2013-11-26 23:05:00,
2013-11-26 18:10:00,42.6,41.8,29.78,East,96,4.6,4.6,97,0.12,RA,,1.78,WeatherDisplay:10.37,2013-11-26 23:10:00,
2013-11-26 18:15:00,42.7,41.9,29.78,East,91,1.0,4.0,97,0.00,RA,,1.79,WeatherDisplay:10.37,2013-11-26 23:15:00,
2013-11-26 18:20:00,42.7,41.9,29.77,East,88,3.5,3.5,97,0.09,RA,,1.79,WeatherDisplay:10.37,2013-11-26 23:20:00,
2013-11-26 18:25:00,42.7,41.9,29.77,East,95,2.3,2.3,97,0.08,,,1.79,WeatherDisplay:10.37,2013-11-26 23:25:00,
2013-11-26 18:30:00,42.7,41.9,29.76,East,86,2.0,4.0,97,0.00,,,1.79,WeatherDisplay:10.37,2013-11-26 23:30:00,
2013-11-26 18:35:00,42.8,42.0,29.76,East,82,2.0,6.0,97,0.00,,,1.79,WeatherDisplay:10.37,2013-11-26 23:35:00,
2013-11-26 18:40:00,42.8,42.0,29.76,East,87,3.5,3.5,97,0.05,,,1.79,WeatherDisplay:10.37,2013-11-26 23:40:00,
2013-11-26 18:45:00,42.8,42.0,29.76,East,91,1.0,5.0,97,0.00,,,1.79,WeatherDisplay:10.37,2013-11-26 23:45:00,
2013-11-26 18:50:00,42.9,42.1,29.76,ENE,68,3.5,3.5,97,0.04,RA,,1.80,WeatherDisplay:10.37,2013-11-26 23:50:00,
2013-11-26 18:55:00,42.9,42.1,29.76,ESE,112,5.0,5.0,97,0.03,RA,,1.80,WeatherDisplay:10.37,2013-11-26 23:55:00,
2013-11-26 19:00:00,42.9,42.1,29.75,ENE,78,2.0,6.0,97,0.00,,,1.80,WeatherDisplay:10.37,2013-11-27 00:00:00,
2013-11-26 19:05:00,42.9,42.1,29.76,ESE,116,3.5,3.5,97,0.02,,,1.80,WeatherDisplay:10.37,2013-11-27 00:05:00,
2013-11-26 19:10:00,43.0,42.2,29.75,ENE,70,4.6,4.6,97,0.02,,,1.80,WeatherDisplay:10.37,2013-11-27 00:10:00,
2013-11-26 19:15:00,43.1,42.6,29.75,East,88,4.6,4.6,98,0.01,,,1.80,WeatherDisplay:10.37,2013-11-27 00:15:00,
2013-11-26 19:20:00,43.2,42.7,29.76,East,91,2.3,2.3,98,0.01,,,1.80,WeatherDisplay:10.37,2013-11-27 00:20:00,
2013-11-26 19:25:00,43.2,42.4,29.75,ENE,74,1.0,2.0,97,0.00,,,1.80,WeatherDisplay:10.37,2013-11-27 00:25:00,
2013-11-26 19:30:00,43.3,42.5,29.76,East,93,3.0,3.0,97,0.01,,,1.80,WeatherDisplay:10.37,2013-11-27 00:30:00,
2013-11-26 19:35:00,43.4,42.6,29.76,ENE,74,2.3,2.3,97,0.01,,,1.80,WeatherDisplay:10.37,2013-11-27 00:35:00,
2013-11-26 19:40:00,43.5,42.7,29.75,ENE,69,1.0,3.0,97,0.00,,,1.80,WeatherDisplay:10.37,2013-11-27 00:40:00,
2013-11-26 19:45:00,43.5,42.7,29.74,ENE,70,2.0,4.0,97,0.00,,,1.80,WeatherDisplay:10.37,2013-11-27 00:45:00,
2013-11-26 19:50:00,43.5,42.7,29.74,East,101,1.2,1.2,97,0.00,,,1.80,WeatherDisplay:10.37,2013-11-27 00:50:00,
2013-11-26 19:55:00,43.5,42.7,29.75,SE,140,0.0,0.0,97,0.00,,,1.80,WeatherDisplay:10.37,2013-11-27 00:55:00,
2013-11-26 20:00:00,43.4,42.6,29.75,SE,139,0.0,0.0,97,0.00,,,1.80,WeatherDisplay:10.37,2013-11-27 01:00:00,
2013-11-26 20:05:00,43.4,42.6,29.75,SE,139,0.0,0.0,97,0.00,,,1.80,WeatherDisplay:10.37,2013-11-27 01:05:00,
2013-11-26 20:10:00,43.4,42.6,29.74,SE,139,0.0,0.0,97,0.00,,,1.80,WeatherDisplay:10.37,2013-11-27 01:10:00,
2013-11-26 20:15:00,43.3,42.5,29.75,SE,139,0.0,0.0,97,0.00,,,1.80,WeatherDisplay:10.37,2013-11-27 01:15:00,
2013-11-26 20:20:00,43.4,42.6,29.75,SE,140,0.0,0.0,97,0.00,,,1.80,WeatherDisplay:10.37,2013-11-27 01:20:00,
2013-11-26 20:25:00,43.4,42.6,29.75,SE,141,0.0,0.0,97,0.00,,,1.80,WeatherDisplay:10.37,2013-11-27 01:25:00,
2013-11-26 20:30:00,43.4,42.9,29.75,SE,142,0.0,0.0,98,0.00,,,1.80,WeatherDisplay:10.37,2013-11-27 01:30:00,
2013-11-26 20:35:00,43.5,42.9,29.75,SE,142,0.0,0.0,98,0.00,RA,,1.81,WeatherDisplay:10.37,2013-11-27 01:35:00,
2013-11-26 20:40:00,43.5,43.0,29.74,WSW,255,0.0,0.0,98,0.01,RA,,1.81,WeatherDisplay:10.37,2013-11-27 01:40:00,
2013-11-26 20:45:00,43.5,43.0,29.73,WSW,254,0.0,0.0,98,0.00,,,1.81,WeatherDisplay:10.37,2013-11-27 01:45:00,
2013-11-26 20:50:00,43.5,43.0,29.73,WSW,254,0.0,0.0,98,0.02,RA,,1.82,WeatherDisplay:10.37,2013-11-27 01:50:00,
2013-11-26 20:55:00,43.5,42.7,29.72,WSW,254,0.0,0.0,97,0.02,RA,,1.82,WeatherDisplay:10.37,2013-11-27 01:55:00,
2013-11-26 21:00:00,43.4,42.6,29.72,WSW,254,0.0,0.0,97,0.02,,,1.82,WeatherDisplay:10.37,2013-11-27 02:00:00,
2013-11-26 21:05:00,43.5,43.0,29.72,WSW,255,0.0,0.0,98,0.02,,,1.82,WeatherDisplay:10.37,2013-11-27 02:05:00,
2013-11-26 21:10:00,43.5,43.0,29.73,WSW,254,0.0,1.0,98,0.00,,,1.82,WeatherDisplay:10.37,2013-11-27 02:10:00,
2013-11-26 21:15:00,43.5,43.0,29.72,WSW,256,0.0,0.0,98,0.02,,,1.82,WeatherDisplay:10.37,2013-11-27 02:15:00,
2013-11-26 21:20:00,43.5,43.0,29.73,WNW,290,2.3,2.3,98,0.02,,,1.82,WeatherDisplay:10.37,2013-11-27 02:20:00,
2013-11-26 21:25:00,43.5,43.0,29.72,WNW,294,3.5,3.5,98,0.02,,,1.82,WeatherDisplay:10.37,2013-11-27 02:25:00,
2013-11-26 21:30:00,43.4,42.9,29.73,WNW,299,2.3,2.3,98,0.02,,,1.82,WeatherDisplay:10.37,2013-11-27 02:30:00,
2013-11-26 21:35:00,43.4,42.9,29.73,West,267,1.2,1.2,98,0.02,RA,,1.83,WeatherDisplay:10.37,2013-11-27 02:35:00,
2013-11-26 21:40:00,43.3,42.8,29.73,WNW,294,1.2,1.2,98,0.02,RA,,1.83,WeatherDisplay:10.37,2013-11-27 02:40:00,
2013-11-26 21:45:00,43.3,42.8,29.74,WNW,296,3.5,3.5,98,0.02,,,1.83,WeatherDisplay:10.37,2013-11-27 02:45:00,
2013-11-26 21:50:00,43.2,42.4,29.73,West,279,3.5,3.5,97,0.01,,,1.83,WeatherDisplay:10.37,2013-11-27 02:50:00,
2013-11-26 21:55:00,42.9,42.1,29.74,WNW,292,1.2,1.2,97,0.01,,,1.83,WeatherDisplay:10.37,2013-11-27 02:55:00,
2013-11-26 22:00:00,42.6,41.8,29.74,WNW,286,2.3,2.3,97,0.02,RA,,1.84,WeatherDisplay:10.37,2013-11-27 03:00:00,
2013-11-26 22:05:00,42.4,41.6,29.73,NW,305,1.2,1.2,97,0.02,RA,,1.84,WeatherDisplay:10.37,2013-11-27 03:05:00,
2013-11-26 22:10:00,42.3,41.5,29.73,NW,305,0.0,0.0,97,0.02,,,1.84,WeatherDisplay:10.37,2013-11-27 03:10:00,
2013-11-26 22:15:00,42.3,41.5,29.73,NW,305,0.0,0.0,97,0.02,,,1.84,WeatherDisplay:10.37,2013-11-27 03:15:00,
2013-11-26 22:20:00,42.2,41.4,29.74,NW,310,2.3,2.3,97,0.03,RA,,1.85,WeatherDisplay:10.37,2013-11-27 03:20:00,
2013-11-26 22:25:00,42.1,41.3,29.75,NW,310,0.0,0.0,97,0.03,RA,,1.85,WeatherDisplay:10.37,2013-11-27 03:25:00,
2013-11-26 22:30:00,42.0,41.2,29.75,NW,310,0.0,0.0,97,0.03,,,1.85,WeatherDisplay:10.37,2013-11-27 03:30:00,
2013-11-26 22:35:00,41.9,41.1,29.75,NW,310,0.0,0.0,97,0.02,,,1.85,WeatherDisplay:10.37,2013-11-27 03:35:00,
2013-11-26 22:40:00,41.8,41.0,29.75,NW,310,0.0,0.0,97,0.02,,,1.85,WeatherDisplay:10.37,2013-11-27 03:40:00,
2013-11-26 22:45:00,41.8,41.0,29.75,NW,310,0.0,0.0,97,0.02,,,1.85,WeatherDisplay:10.37,2013-11-27 03:45:00,
2013-11-26 22:50:00,41.6,40.8,29.75,WNW,300,3.5,3.5,97,0.02,,,1.85,WeatherDisplay:10.37,2013-11-27 03:50:00,
2013-11-26 22:55:00,41.2,40.1,29.75,WNW,283,2.0,2.0,96,0.03,RA,,1.86,WeatherDisplay:10.37,2013-11-27 03:55:00,
2013-11-26 23:00:00,40.7,39.6,29.74,NW,310,2.3,2.3,96,0.02,RA,,1.86,WeatherDisplay:10.37,2013-11-27 04:00:00,
2013-11-26 23:05:00,40.4,39.4,29.75,East,84,3.0,3.0,96,0.02,,,1.86,WeatherDisplay:10.37,2013-11-27 04:05:00,
2013-11-26 23:10:00,39.6,38.3,29.75,East,82,3.5,3.5,95,0.02,,,1.86,WeatherDisplay:10.37,2013-11-27 04:10:00,
2013-11-26 23:15:00,39.1,37.8,29.75,East,81,3.5,3.5,95,0.02,,,1.86,WeatherDisplay:10.37,2013-11-27 04:15:00,
2013-11-26 23:20:00,38.9,37.9,29.75,East,83,0.0,0.0,96,0.01,,,1.86,WeatherDisplay:10.37,2013-11-27 04:20:00,
2013-11-26 23:25:00,38.8,37.8,29.75,ESE,112,1.2,1.2,96,0.01,,,1.86,WeatherDisplay:10.37,2013-11-27 04:25:00,
2013-11-26 23:30:00,38.7,37.7,29.75,ESE,111,1.2,1.2,96,0.02,RA,,1.87,WeatherDisplay:10.37,2013-11-27 04:30:00,
2013-11-26 23:35:00,38.6,37.6,29.75,NW,308,3.5,3.5,96,0.02,RA,,1.87,WeatherDisplay:10.37,2013-11-27 04:35:00,
2013-11-26 23:40:00,38.3,37.3,29.75,East,81,2.3,2.3,96,0.02,,,1.87,WeatherDisplay:10.37,2013-11-27 04:40:00,
2013-11-26 23:45:00,37.9,36.6,29.75,North,358,2.3,0.0,95,0.02,,,1.87,WeatherDisplay:10.37,2013-11-27 04:45:00,
2013-11-26 23:50:00,37.8,36.8,29.76,NW,326,1.2,1.2,96,0.02,,,1.87,WeatherDisplay:10.37,2013-11-27 04:50:00,
2013-11-26 23:55:00,37.6,36.3,29.76,NW,311,1.2,1.2,95,0.01,,,1.87,WeatherDisplay:10.37,2013-11-27 04:55:00,